Main page
METAR-TAF:

METAR-TAF

Airports :

Jinnah International Airport

Karachi, Pakistan

latitude: 24-54N, longitude: 067-08E, elevation: 21 m

Current weather observation

The report was made 33 minutes ago, at 04:00 UTC
Wind 5 kt from the Southwest
Temperature 30°C
Humidity 79%
Pressure 1006 hPa
Visibility: 3500 m
Broken clouds at a height of 3000 ft
mist

METAR: OPKC 260400Z 22005KT 3500 BR BKN030 30/26 Q1006 NOSIG

Time: 09:33 (04:33 UTC)

Forecast

The report was made 7 hours and 3 minutes ago, at 21:30 UTC
Forecast valid from 26 at 00 UTC to 26 at 09 UTC
Wind 5 kt from the West/Southwest with gusts up to 15 kt
Visibility: 6000 m
Scattered clouds at a height of 10000 ft
Temporary
from 26 at 00 UTC to 26 at 04 UTC
Wind 7 kt from the West
Visibility: 4000 m
Scattered clouds at a height of 3000 ft
Broken clouds at a height of 10000 ft
smoke

TAF: OPKC 252130Z 2600/2609 25005G15KT 6000 SCT100 TEMPO 2600/2604 26007KT 4000 FU SCT030 BKN100

Weather observations and forecasts of more than 4000 airports (METAR and TAF reports).

The available stations are represented by yellow and red dots on the map.

Hover mouse over dot to see the name of the station.

Then click to see weather observations and forecasts.

To change the map : click on the green buttons with a black cross to zoom in, on the green button with a dash to zoom out, or on the green arrows for adjacent maps.


METAR-TAF: